Hovedside
METAR-TAF:

METAR-TAF

Lufthavner :

Påskeøya, Chile

breddegrad: 27-09S, lengdegrad: 109-25W, høyde over havet: 51 m

Gjeldene værobservasjon

Denne rapporten ble laget for 56 minutter siden, klokken 20:00 UTC
Vind 6 kt fra Øst, skiftende mellom Nord-nordøst og Øst-sørøst
Temperatur 20°C
Luftfuktighet 73%
Trykk 1028 hPa
Sikt 10 km eller mer
Spredte skyer i en høyde av 2000 ft
Brutte skyer i en høyde av 2800 ft

METAR: SCIP 252000Z 08006KT 030V120 9999 SCT020 BKN028 20/15 Q1028 NOSIG

Tid: 14:56 (20:56 UTC)

Varsel

Denne rapporten ble laget for 4 timer og 39 minutter siden, klokken 16:17 UTC
Varsel gyldig fra 25. klokken 18 UTC til 26. klokken 18 UTC
Vind 7 kt fra Øst
Sikt 10 km eller mer
Spredte skyer i en høyde av 1500 ft
Spredte skyer i en høyde av 4000 ft

TAF: SCIP 251617Z 2518/2618 08007KT 9999 SCT015 SCT040 TN17/2611Z TX23/2520Z

Værobservasjoner og værvarsel for over 4000 flyplasser (METAR- og TAF-rapporter).

Tilgjengelige stasjoner er representert av de røde og gule prikkene på kartet.

Hold musepekeren over prikken for å se navnet på stasjonen.

Klikk så for å se værobservasjoner og -varsler.

For å forandre kartet kan du klikke på den grønne knappen med svart kryss for å zoome inn, på den grønne knappen med strek for å zoome ut, eller på de grønne pilene for å se tilstøtende kart.


METAR-TAF: